createdAt,value
2019-04-25T00:01:31.942Z,1.50
2019-04-25T00:04:16.102Z,1.75
2019-04-25T00:06:52.251Z,1.50
2019-04-25T00:09:23.422Z,1.40
2019-04-25T00:11:54.422Z,1.42
2019-04-25T00:14:25.754Z,1.32
2019-04-25T00:17:01.745Z,1.80
2019-04-25T00:19:31.708Z,1.42
2019-04-25T00:22:16.241Z,1.30
2019-04-25T00:24:59.059Z,1.47
2019-04-25T00:27:27.987Z,1.37
2019-04-25T00:29:57.547Z,1.62
2019-04-25T00:32:28.455Z,1.65
2019-04-25T00:34:57.588Z,1.32
2019-04-25T00:37:27.005Z,1.27
2019-04-25T00:39:57.787Z,1.55
2019-04-25T00:42:34.164Z,1.47
2019-04-25T00:45:03.160Z,1.50
2019-04-25T00:47:32.049Z,1.90
2019-04-25T00:50:02.286Z,2.00
2019-04-25T00:52:31.535Z,1.50
2019-04-25T00:55:01.894Z,1.60
2019-04-25T00:57:32.094Z,1.35
2019-04-25T01:00:18.679Z,1.40
2019-04-25T01:02:52.489Z,1.90
2019-04-25T01:05:21.652Z,1.80
2019-04-25T01:07:52.453Z,1.20
2019-04-25T01:10:24.356Z,1.37
2019-04-25T01:12:53.332Z,1.70
2019-04-25T01:15:22.790Z,2.05
2019-04-25T01:17:52.601Z,1.90
2019-04-25T01:20:23.872Z,1.50
2019-04-25T01:22:54.270Z,1.77
2019-04-25T01:25:23.917Z,1.80
2019-04-25T01:27:53.905Z,1.65
2019-04-25T01:30:25.714Z,1.65
2019-04-25T01:32:55.418Z,1.67
2019-04-25T01:35:47.374Z,1.70
2019-04-25T01:38:34.194Z,1.75
2019-04-25T01:41:11.273Z,2.05
2019-04-25T01:43:45.889Z,2.12
2019-04-25T01:46:15.443Z,2.00
2019-04-25T01:48:44.553Z,2.25
2019-04-25T01:51:14.265Z,2.08
2019-04-25T01:53:44.170Z,1.80
2019-04-25T01:56:14.913Z,2.15
2019-04-25T01:58:43.955Z,2.00
2019-04-25T02:01:14.408Z,2.00
2019-04-25T02:03:44.215Z,2.00
2019-04-25T02:06:15.643Z,2.67
2019-04-25T02:08:44.571Z,2.33
2019-04-25T02:11:35.161Z,2.47
2019-04-25T02:14:05.384Z,2.55
2019-04-25T02:16:35.401Z,2.20
2019-04-25T02:19:05.221Z,2.27
2019-04-25T02:21:34.556Z,1.82
2019-04-25T02:24:04.336Z,1.75
2019-04-25T02:26:34.530Z,1.75
2019-04-25T02:29:04.886Z,2.10
2019-04-25T02:31:34.814Z,2.30
2019-04-25T02:34:08.196Z,2.37
2019-04-25T02:36:35.160Z,2.62
2019-04-25T02:39:09.170Z,2.80
2019-04-25T02:41:38.229Z,2.47
2019-04-25T02:44:09.973Z,2.40
2019-04-25T02:47:00.951Z,2.08
2019-04-25T02:50:07.503Z,2.25
2019-04-25T02:52:40.915Z,2.58
2019-04-25T02:55:11.440Z,2.50
2019-04-25T02:57:41.996Z,2.20
2019-04-25T03:00:19.319Z,2.47
2019-04-25T03:02:48.324Z,2.10
2019-04-25T03:05:17.687Z,1.98
2019-04-25T03:07:46.623Z,2.30
2019-04-25T03:10:16.260Z,2.05
2019-04-25T03:12:45.262Z,3.15
2019-04-25T03:15:14.563Z,2.60
2019-04-25T03:17:44.477Z,3.30
2019-04-25T03:20:30.160Z,3.65
2019-04-25T03:23:09.504Z,3.85
2019-04-25T03:25:43.502Z,4.28
2019-04-25T03:28:13.496Z,6.60
2019-04-25T03:30:44.911Z,4.08
2019-04-25T03:33:19.471Z,2.62
2019-04-25T03:35:47.562Z,2.52
2019-04-25T03:38:16.618Z,2.90
2019-04-25T03:40:45.598Z,3.50
2019-04-25T03:43:14.987Z,2.95
2019-04-25T03:45:45.299Z,3.15
2019-04-25T03:48:14.454Z,2.70
2019-04-25T03:50:44.171Z,3.00
2019-04-25T03:53:13.930Z,3.15
2019-04-25T03:55:44.352Z,2.35
2019-04-25T03:58:14.609Z,3.45
2019-04-25T04:00:44.767Z,3.30
2019-04-25T04:03:15.097Z,3.37
2019-04-25T04:05:44.299Z,3.90
2019-04-25T04:08:15.702Z,2.62
2019-04-25T04:10:43.846Z,3.27
2019-04-25T04:13:14.619Z,3.33
2019-04-25T04:15:43.593Z,3.35
2019-04-25T04:18:17.684Z,3.12
2019-04-25T04:20:55.627Z,3.27
2019-04-25T04:23:30.328Z,2.95
2019-04-25T04:25:59.328Z,3.40
2019-04-25T04:28:28.366Z,2.67
2019-04-25T04:30:57.356Z,3.40
2019-04-25T04:33:32.210Z,2.90
2019-04-25T04:35:56.951Z,2.55
2019-04-25T04:38:25.855Z,3.80
2019-04-25T04:40:55.164Z,3.00
2019-04-25T04:43:25.658Z,3.75
2019-04-25T04:45:54.649Z,3.45
2019-04-25T04:48:23.507Z,4.17
2019-04-25T04:50:53.492Z,4.40
2019-04-25T04:53:23.511Z,4.40
2019-04-25T04:55:54.307Z,5.30
2019-04-25T04:58:24.967Z,4.80
2019-04-25T05:00:54.190Z,4.45
2019-04-25T05:03:44.980Z,5.00
2019-04-25T05:06:25.174Z,5.05
2019-04-25T05:08:58.105Z,3.72
2019-04-25T05:11:27.107Z,3.85
2019-04-25T05:13:56.046Z,4.50
2019-04-25T05:16:24.911Z,3.87
2019-04-25T05:18:55.353Z,4.05
2019-04-25T05:21:25.207Z,3.72
2019-04-25T05:23:54.506Z,3.85
2019-04-25T05:26:24.935Z,3.70
2019-04-25T05:28:56.825Z,3.15
2019-04-25T05:31:31.897Z,3.50
2019-04-25T05:34:00.924Z,3.25
2019-04-25T05:36:37.462Z,3.27
2019-04-25T05:39:09.505Z,3.15
2019-04-25T05:42:05.194Z,3.67
2019-04-25T05:44:34.874Z,3.10
2019-04-25T05:47:04.215Z,3.02
2019-04-25T05:49:36.409Z,3.00
2019-04-25T05:52:05.508Z,2.47
2019-04-25T05:54:34.650Z,2.87
2019-04-25T05:57:03.750Z,2.60
2019-04-25T05:59:33.766Z,2.67
2019-04-25T06:02:03.939Z,2.80
2019-04-25T06:04:33.591Z,2.62
2019-04-25T06:07:03.062Z,3.33
2019-04-25T06:09:54.571Z,2.62
2019-04-25T06:12:38.359Z,2.25
2019-04-25T06:15:11.014Z,2.50
2019-04-25T06:17:58.596Z,2.47
2019-04-25T06:20:37.205Z,2.05
2019-04-25T06:23:15.636Z,2.08
2019-04-25T06:25:44.646Z,1.98
2019-04-25T06:28:15.728Z,1.82
2019-04-25T06:30:44.628Z,1.92
2019-04-25T06:33:13.580Z,1.40
2019-04-25T06:35:44.077Z,1.60
2019-04-25T06:38:13.451Z,1.67
2019-04-25T06:40:43.711Z,1.65
2019-04-25T06:43:13.423Z,1.50
2019-04-25T06:46:02.014Z,1.22
2019-04-25T06:48:37.959Z,1.70
2019-04-25T06:51:06.987Z,1.55
2019-04-25T06:53:36.225Z,1.50
2019-04-25T06:56:05.780Z,1.25
2019-04-25T06:58:34.879Z,1.40
2019-04-25T07:01:03.875Z,1.45
2019-04-25T07:03:35.256Z,1.60
2019-04-25T07:06:04.312Z,1.82
2019-04-25T07:08:34.940Z,1.70
2019-04-25T07:11:03.963Z,1.45
2019-04-25T07:13:35.569Z,1.62
2019-04-25T07:16:04.670Z,2.22
2019-04-25T07:18:36.330Z,1.72
2019-04-25T07:21:04.707Z,1.42
2019-04-25T07:23:34.633Z,1.55
2019-04-25T07:26:19.549Z,1.67
2019-04-25T07:29:00.328Z,1.55
2019-04-25T07:31:40.758Z,1.55
2019-04-25T07:34:18.656Z,1.57
2019-04-25T07:36:47.712Z,1.52
2019-04-25T07:39:16.700Z,1.92
2019-04-25T07:41:45.684Z,2.55
2019-04-25T07:44:14.875Z,2.35
2019-04-25T07:46:43.963Z,1.70
2019-04-25T07:49:13.451Z,1.82
2019-04-25T07:51:43.218Z,1.37
2019-04-25T07:54:14.310Z,1.47
2019-04-25T07:56:43.721Z,2.15
2019-04-25T07:59:13.934Z,1.60
2019-04-25T08:01:43.721Z,2.30
2019-04-25T08:04:13.638Z,1.40
2019-04-25T08:06:44.449Z,1.47
2019-04-25T08:09:15.464Z,1.55
2019-04-25T08:11:44.483Z,1.70
2019-04-25T08:14:25.409Z,1.40
2019-04-25T08:16:57.195Z,1.60
2019-04-25T08:19:26.360Z,1.75
2019-04-25T08:21:56.844Z,1.75
2019-04-25T08:24:28.361Z,1.42
2019-04-25T08:26:58.373Z,1.57
2019-04-25T08:29:27.389Z,1.92
2019-04-25T08:31:56.365Z,2.58
2019-04-25T08:34:25.268Z,1.52
2019-04-25T08:36:54.386Z,1.35
2019-04-25T08:39:24.047Z,1.35
2019-04-25T08:41:54.095Z,1.50
2019-04-25T08:44:24.187Z,1.45
2019-04-25T08:46:53.884Z,1.52
2019-04-25T08:49:31.378Z,1.25
2019-04-25T08:52:00.376Z,1.55
2019-04-25T08:54:44.369Z,1.42
2019-04-25T08:57:19.557Z,1.30
2019-04-25T08:59:55.606Z,1.45
2019-04-25T09:02:38.900Z,1.40
2019-04-25T09:05:35.872Z,1.27
2019-04-25T09:08:04.684Z,1.00
2019-04-25T09:10:35.803Z,1.52
2019-04-25T09:13:04.832Z,1.22
2019-04-25T09:15:36.565Z,1.42
2019-04-25T09:18:05.034Z,1.40
2019-04-25T09:20:38.041Z,1.70
2019-04-25T09:23:04.998Z,1.32
2019-04-25T09:25:35.450Z,1.35
2019-04-25T09:28:05.183Z,1.25
2019-04-25T09:30:35.789Z,0.95
2019-04-25T09:33:05.017Z,1.47
2019-04-25T09:35:34.011Z,1.47
2019-04-25T09:38:03.424Z,1.32
2019-04-25T09:40:34.088Z,0.90
2019-04-25T09:43:03.617Z,1.05
2019-04-25T09:45:57.300Z,1.07
2019-04-25T09:48:51.321Z,1.35
2019-04-25T09:51:29.428Z,1.20
2019-04-25T09:54:05.160Z,1.00
2019-04-25T09:56:38.634Z,1.10
2019-04-25T09:59:13.791Z,1.42
2019-04-25T10:01:46.182Z,1.45
2019-04-25T10:04:15.497Z,1.32
2019-04-25T10:06:45.045Z,1.00
2019-04-25T10:09:15.799Z,1.05
2019-04-25T10:11:46.404Z,1.20
2019-04-25T10:14:32.868Z,1.20
2019-04-25T10:17:03.686Z,1.35
2019-04-25T10:19:34.322Z,1.00
2019-04-25T10:22:03.482Z,1.00
2019-04-25T10:24:32.775Z,1.20
2019-04-25T10:27:01.759Z,1.35
2019-04-25T10:29:41.574Z,1.40
2019-04-25T10:32:01.647Z,1.10
2019-04-25T10:34:30.922Z,0.80
2019-04-25T10:36:59.873Z,0.95
2019-04-25T10:39:30.869Z,1.05
2019-04-25T10:42:00.061Z,1.20
2019-04-25T10:44:29.057Z,1.30
2019-04-25T10:46:57.913Z,1.50
2019-04-25T10:49:26.804Z,1.50
2019-04-25T10:51:55.716Z,1.35
2019-04-25T10:54:24.616Z,1.47
2019-04-25T10:56:53.467Z,1.60
2019-04-25T10:59:23.581Z,1.20
2019-04-25T11:01:53.923Z,1.20
2019-04-25T11:04:29.599Z,1.42
2019-04-25T11:06:58.590Z,1.37
2019-04-25T11:09:27.564Z,1.60
2019-04-25T11:11:56.553Z,1.05
2019-04-25T11:14:27.787Z,1.70
2019-04-25T11:16:56.627Z,1.32
2019-04-25T11:19:25.628Z,1.92
2019-04-25T11:21:54.721Z,1.10
2019-04-25T11:24:23.920Z,1.40
2019-04-25T11:26:55.172Z,1.37
2019-04-25T11:29:24.106Z,1.12
2019-04-25T11:31:53.604Z,1.10
2019-04-25T11:34:22.947Z,1.40
2019-04-25T11:36:52.158Z,1.70
2019-04-25T11:39:46.066Z,1.47
2019-04-25T11:42:15.931Z,1.10
2019-04-25T11:44:45.626Z,1.20
2019-04-25T11:47:15.530Z,0.80
2019-04-25T11:49:46.356Z,1.25
2019-04-25T11:52:26.987Z,1.12
2019-04-25T11:54:46.854Z,0.90
2019-04-25T11:57:16.407Z,1.15
2019-04-25T11:59:47.941Z,1.00
2019-04-25T12:02:17.716Z,0.90
2019-04-25T12:04:47.770Z,0.95
2019-04-25T12:07:17.572Z,1.30
2019-04-25T12:09:46.878Z,0.98
2019-04-25T12:12:17.016Z,1.35
2019-04-25T12:14:46.388Z,0.90
2019-04-25T12:17:16.112Z,1.20
2019-04-25T12:19:46.914Z,1.12
2019-04-25T12:22:15.817Z,1.27
2019-04-25T12:24:45.800Z,0.88
2019-04-25T12:27:15.371Z,1.05
2019-04-25T12:29:45.901Z,1.42
2019-04-25T12:32:15.217Z,0.93
2019-04-25T12:34:44.904Z,0.80
2019-04-25T12:37:14.723Z,1.37
2019-04-25T12:39:43.714Z,0.68
2019-04-25T12:42:14.348Z,0.90
2019-04-25T12:44:54.641Z,1.10
2019-04-25T12:47:24.826Z,1.12
2019-04-25T12:49:54.838Z,0.90
2019-04-25T12:52:24.686Z,1.02
2019-04-25T12:54:57.209Z,1.35
2019-04-25T12:57:24.432Z,1.10
2019-04-25T12:59:55.131Z,0.90
2019-04-25T13:02:24.089Z,1.27
2019-04-25T13:04:55.197Z,1.07
2019-04-25T13:07:23.712Z,0.98
2019-04-25T13:09:53.626Z,1.00
2019-04-25T13:12:23.510Z,1.00
2019-04-25T13:14:52.540Z,1.25
2019-04-25T13:17:21.634Z,1.32
2019-04-25T13:19:50.674Z,1.00
2019-04-25T13:22:19.796Z,1.10
2019-04-25T13:24:48.701Z,1.00
2019-04-25T13:27:25.644Z,1.32
2019-04-25T13:30:24.249Z,0.85
2019-04-25T13:33:09.497Z,1.12
2019-04-25T13:35:44.792Z,1.32
2019-04-25T13:38:13.723Z,1.87
2019-04-25T13:40:42.719Z,1.52
2019-04-25T13:43:11.645Z,1.60
2019-04-25T13:45:40.561Z,1.60
2019-04-25T13:48:10.072Z,1.30
2019-04-25T13:50:39.042Z,1.37
2019-04-25T13:53:07.932Z,1.42
2019-04-25T13:55:36.876Z,1.60
2019-04-25T13:58:06.744Z,1.70
2019-04-25T14:00:36.397Z,2.05
2019-04-25T14:03:05.694Z,1.82
2019-04-25T14:05:35.347Z,1.77
2019-04-25T14:08:04.748Z,1.42
2019-04-25T14:10:34.358Z,0.98
2019-04-25T14:13:04.239Z,1.47
2019-04-25T14:15:34.372Z,1.15
2019-04-25T14:18:17.411Z,0.80
2019-04-25T14:20:51.030Z,0.40
2019-04-25T14:23:20.617Z,0.50
2019-04-25T14:25:50.583Z,0.78
2019-04-25T14:28:19.595Z,0.30
2019-04-25T14:30:48.578Z,2.98
2019-04-25T14:33:17.545Z,0.78
2019-04-25T14:35:46.521Z,0.55
2019-04-25T14:38:15.518Z,0.37
2019-04-25T14:40:45.639Z,0.30
2019-04-25T14:43:14.652Z,0.70
2019-04-25T14:45:45.100Z,0.75
2019-04-25T14:48:14.698Z,0.60
2019-04-25T14:50:43.615Z,0.50
2019-04-25T14:53:12.461Z,0.45
2019-04-25T14:56:18.366Z,0.80
2019-04-25T14:58:47.445Z,0.70
2019-04-25T15:01:18.684Z,1.40
2019-04-25T15:03:47.664Z,1.37
2019-04-25T15:06:16.605Z,1.07
2019-04-25T15:08:45.512Z,1.62
2019-04-25T15:11:14.433Z,0.95
2019-04-25T15:13:43.392Z,1.35
2019-04-25T15:16:12.600Z,1.40
2019-04-25T15:18:46.914Z,0.90
2019-04-25T15:21:12.535Z,1.10
2019-04-25T15:23:41.455Z,1.42
2019-04-25T15:26:10.462Z,1.92
2019-04-25T15:28:39.472Z,1.25
2019-04-25T15:31:08.477Z,1.47
2019-04-25T15:33:37.569Z,1.22
2019-04-25T15:36:18.195Z,1.17
2019-04-25T15:38:59.745Z,1.20
2019-04-25T15:41:56.504Z,1.50
2019-04-25T15:45:02.353Z,1.30
2019-04-25T15:47:32.182Z,1.17
2019-04-25T15:50:01.041Z,1.75
2019-04-25T15:52:31.044Z,1.30
2019-04-25T15:55:06.867Z,1.52
2019-04-25T15:57:30.927Z,1.00
2019-04-25T15:59:59.882Z,1.00
2019-04-25T16:02:28.954Z,0.90
2019-04-25T16:04:57.884Z,1.10
2019-04-25T16:07:27.219Z,0.70
2019-04-25T16:09:56.423Z,0.60
2019-04-25T16:12:26.514Z,0.75
2019-04-25T16:14:56.296Z,0.80
2019-04-25T16:17:27.084Z,0.55
2019-04-25T16:19:58.912Z,0.75
2019-04-25T16:22:28.015Z,0.40
2019-04-25T16:25:02.529Z,0.40
2019-04-25T16:27:32.371Z,0.57
2019-04-25T16:30:02.149Z,0.40
2019-04-25T16:32:31.081Z,0.28
2019-04-25T16:35:00.047Z,0.20
2019-04-25T16:37:29.192Z,0.30
2019-04-25T16:39:58.532Z,0.30
2019-04-25T16:42:30.243Z,0.75
2019-04-25T16:44:59.423Z,0.80
2019-04-25T16:47:33.677Z,0.80
2019-04-25T16:50:02.576Z,0.80
2019-04-25T16:53:35.576Z,0.90
2019-04-25T16:59:01.902Z,0.90
2019-04-25T17:01:31.632Z,1.10
2019-04-25T17:04:01.420Z,0.80
2019-04-25T17:06:32.192Z,0.60
2019-04-25T17:09:06.738Z,0.60
2019-04-25T17:11:39.313Z,0.50
2019-04-25T17:14:26.669Z,0.50
2019-04-25T17:17:17.543Z,0.47
2019-04-25T17:20:05.572Z,0.30
2019-04-25T17:22:35.107Z,0.60
2019-04-25T17:25:04.590Z,0.42
2019-04-25T17:27:33.628Z,0.75
2019-04-25T17:30:02.619Z,0.93
2019-04-25T17:32:50.440Z,0.50
2019-04-25T17:35:19.346Z,0.55
2019-04-25T17:37:54.849Z,0.60
2019-04-25T17:40:27.228Z,0.90
2019-04-25T17:42:56.198Z,0.82
2019-04-25T17:45:29.670Z,1.07
2019-04-25T17:47:58.659Z,1.30
2019-04-25T17:50:27.571Z,0.80
2019-04-25T17:52:56.581Z,1.12
2019-04-25T17:55:25.569Z,0.70
2019-04-25T17:57:54.440Z,1.20
2019-04-25T18:00:49.088Z,1.20
2019-04-25T18:03:18.948Z,1.20
2019-04-25T18:05:47.871Z,1.40
2019-04-25T18:08:16.879Z,1.07
2019-04-25T18:10:46.294Z,1.30
2019-04-25T18:13:15.421Z,0.90
2019-04-25T18:15:54.626Z,1.42
2019-04-25T18:18:39.185Z,1.10
2019-04-25T18:21:08.520Z,1.37
2019-04-25T18:23:54.839Z,1.12
2019-04-25T18:26:29.170Z,1.25
2019-04-25T18:29:04.546Z,1.00
2019-04-25T18:31:33.594Z,0.80
2019-04-25T18:34:05.607Z,0.70
2019-04-25T18:37:05.835Z,0.80
2019-04-25T18:39:51.945Z,0.80
2019-04-25T18:42:46.168Z,0.60
2019-04-25T18:45:18.987Z,0.33
2019-04-25T18:47:47.997Z,0.28
2019-04-25T18:50:18.749Z,0.30
2019-04-25T18:52:56.929Z,0.33
2019-04-25T18:55:34.844Z,0.40
2019-04-25T18:58:17.672Z,0.50
2019-04-25T19:01:06.123Z,0.40
2019-04-25T19:03:54.184Z,0.53
2019-04-25T19:06:26.508Z,0.40
2019-04-25T19:08:55.559Z,0.50
2019-04-25T19:11:24.586Z,0.70
2019-04-25T19:13:53.651Z,0.60
2019-04-25T19:16:26.508Z,0.60
2019-04-25T19:18:55.444Z,0.85
2019-04-25T19:21:24.521Z,0.80
2019-04-25T19:23:53.539Z,0.90
2019-04-25T19:26:25.534Z,0.70
2019-04-25T19:28:54.555Z,0.70
2019-04-25T19:31:23.623Z,0.90
2019-04-25T19:33:52.649Z,0.90
2019-04-25T19:36:21.609Z,1.17
2019-04-25T19:38:50.613Z,0.85
2019-04-25T19:41:24.916Z,0.82
2019-04-25T19:43:57.353Z,1.15
2019-04-25T19:46:43.248Z,1.07
2019-04-25T19:49:12.282Z,0.60
2019-04-25T19:51:41.791Z,0.60
2019-04-25T19:54:10.995Z,0.72
2019-04-25T19:56:43.841Z,0.62
2019-04-25T19:59:12.931Z,0.70
2019-04-25T20:01:42.655Z,0.50
2019-04-25T20:04:27.082Z,0.50
2019-04-25T20:07:30.506Z,0.50
2019-04-25T20:10:24.422Z,0.68
2019-04-25T20:12:55.017Z,0.53
2019-04-25T20:15:24.170Z,0.70
2019-04-25T20:17:54.240Z,0.95
2019-04-25T20:20:23.474Z,0.55
2019-04-25T20:22:52.480Z,0.50
2019-04-25T20:25:21.557Z,0.60
2019-04-25T20:27:50.790Z,0.62
2019-04-25T20:30:23.268Z,0.60
2019-04-25T20:32:51.364Z,1.00
2019-04-25T20:35:20.539Z,0.60
2019-04-25T20:37:49.525Z,0.62
2019-04-25T20:40:18.583Z,0.68
2019-04-25T20:42:48.052Z,1.02
2019-04-25T20:45:18.028Z,0.65
2019-04-25T20:47:47.862Z,0.57
2019-04-25T20:50:17.189Z,0.88
2019-04-25T20:52:46.324Z,0.60
2019-04-25T20:55:16.520Z,0.70
2019-04-25T20:57:45.452Z,0.50
2019-04-25T21:00:20.511Z,0.55
2019-04-25T21:02:49.818Z,0.98
2019-04-25T21:05:18.784Z,0.80
2019-04-25T21:07:47.748Z,0.72
2019-04-25T21:10:16.744Z,0.60
2019-04-25T21:12:45.620Z,1.02
2019-04-25T21:15:43.565Z,0.78
2019-04-25T21:18:23.324Z,1.40
2019-04-25T21:20:53.209Z,0.93
2019-04-25T21:23:22.535Z,0.90
2019-04-25T21:25:52.686Z,0.95
2019-04-25T21:28:22.235Z,0.82
2019-04-25T21:30:51.373Z,0.90
2019-04-25T21:33:23.891Z,0.90
2019-04-25T21:35:53.309Z,0.98
2019-04-25T21:38:22.759Z,1.00
2019-04-25T21:40:58.491Z,1.15
2019-04-25T21:43:30.631Z,1.07
2019-04-25T21:46:00.682Z,1.12
2019-04-25T21:48:30.192Z,1.10
2019-04-25T21:51:05.256Z,1.07
2019-04-25T21:53:35.877Z,0.90
2019-04-25T21:56:09.324Z,0.98
2019-04-25T21:58:38.458Z,1.20
2019-04-25T22:01:20.160Z,1.40
2019-04-25T22:03:50.806Z,0.95
2019-04-25T22:06:27.918Z,1.40
2019-04-25T22:11:57.327Z,1.12
2019-04-25T22:14:44.158Z,1.37
2019-04-25T22:17:26.352Z,1.50
2019-04-25T22:19:55.665Z,1.30
2019-04-25T22:22:26.008Z,1.30
2019-04-25T22:24:55.029Z,1.60
2019-04-25T22:27:29.718Z,1.40
2019-04-25T22:30:17.562Z,1.40
2019-04-25T22:33:03.652Z,1.70
2019-04-25T22:35:54.156Z,1.35
2019-04-25T22:38:23.471Z,1.50
2019-04-25T22:40:52.415Z,1.50
2019-04-25T22:43:24.757Z,1.50
2019-04-25T22:45:54.049Z,1.55
2019-04-25T22:48:45.088Z,1.70
2019-04-25T22:51:14.157Z,1.80
2019-04-25T22:53:47.910Z,1.62
2019-04-25T22:56:16.956Z,1.30
2019-04-25T22:58:45.947Z,1.72
2019-04-25T23:01:33.039Z,1.90
2019-04-25T23:04:05.924Z,1.90
2019-04-25T23:06:34.954Z,1.90
2019-04-25T23:09:06.058Z,1.80
2019-04-25T23:11:35.346Z,1.80
2019-04-25T23:14:04.854Z,1.92
2019-04-25T23:16:34.570Z,2.10
2019-04-25T23:19:04.333Z,2.00
2019-04-25T23:21:34.317Z,2.25
2019-04-25T23:24:03.436Z,1.95
2019-04-25T23:26:41.578Z,2.12
2019-04-25T23:29:10.588Z,2.33
2019-04-25T23:31:40.128Z,2.10
2019-04-25T23:34:10.765Z,1.98
2019-04-25T23:36:40.083Z,2.22
2019-04-25T23:39:11.219Z,2.10
2019-04-25T23:41:40.471Z,2.00
2019-04-25T23:44:10.106Z,2.25
2019-04-25T23:46:39.826Z,2.27
2019-04-25T23:49:08.823Z,2.30
2019-04-25T23:51:37.783Z,2.42
2019-04-25T23:54:07.588Z,2.30
2019-04-25T23:56:37.723Z,2.50
2019-04-25T23:59:08.392Z,2.40
